Time;durP1;ratioP1;P1;durP2;ratioP2;P2;SDS_P1;SDS_P2;PMS_P1;PMS_P2;Temp;Humidity;BMP_temperature;BMP_pressure;BME280_temperature;BME280_humidity;BME280_pressure;Samples;Min_cycle;Max_cycle;Signal;HPM_P1;HPM_P2
2023/10/16 00:00:57;;;;;;;2.38;0.60;;;;;;;;;;5071879;28;20052;-68
2023/10/16 00:03:23;;;;;;;3.22;0.30;;;;;;;;;;5065377;28;20042;-68
2023/10/16 00:05:52;;;;;;;0.43;0.10;;;;;;;;;;5070051;28;20445;-69
2023/10/16 00:08:18;;;;;;;4.13;0.20;;;;;;;;;;5054270;28;20131;-70
2023/10/16 00:10:57;;;;;;;0.30;0.20;;;;;;;;;;5051497;28;20032;-70
2023/10/16 00:13:26;;;;;;;0.40;0.20;;;;;;;;;;5071321;28;20028;-69
2023/10/16 00:16:15;;;;;;;2.88;0.15;;;;;;;;;;5062314;28;20074;-69
2023/10/16 00:18:41;;;;;;;1.13;0.30;;;;;;;;;;5063221;28;20043;-69
2023/10/16 00:21:07;;;;;;;0.50;0.20;;;;;;;;;;5046217;28;20111;-69
2023/10/16 00:23:40;;;;;;;0.65;0.35;;;;;;;;;;5061886;28;20024;-69
2023/10/16 00:26:06;;;;;;;0.80;0.22;;;;;;;;;;5057831;28;20450;-69
2023/10/16 00:28:33;;;;;;;0.60;0.20;;;;;;;;;;5053988;28;20017;-69
2023/10/16 00:30:59;;;;;;;1.30;0.50;;;;;;;;;;5065718;28;20036;-69
2023/10/16 00:33:25;;;;;;;1.10;0.40;;;;;;;;;;5071934;28;20031;-70
2023/10/16 00:35:51;;;;;;;1.35;0.30;;;;;;;;;;5064827;28;20029;-69
2023/10/16 00:38:19;;;;;;;;;;;;;;;;;;5064984;28;20032;-70
2023/10/16 00:40:51;;;;;;;;;;;;;;;;;;5054560;28;19911;-69
2023/10/16 00:43:19;;;;;;;;;;;;;;;;;;5069096;28;19927;-69
2023/10/16 00:45:45;;;;;;;;;;;;;;;;;;5047686;28;20294;-69
2023/10/16 00:48:12;;;;;;;;;;;;;;;;;;5066807;28;19991;-69
2023/10/16 00:50:38;;;;;;;;;;;;;;;;;;5064190;28;19924;-69
2023/10/16 00:53:07;;;;;;;;;;;;;;;;;;5066535;28;20344;-69
2023/10/16 00:55:34;;;;;;;1.88;0.20;;;;;;;;;;5052638;28;19983;-69
2023/10/16 00:58:00;;;;;;;2.13;0.30;;;;;;;;;;5067006;28;20052;-69
2023/10/16 01:00:27;;;;;;;0.35;0.20;;;;;;;;;;5037480;28;20017;-69
2023/10/16 01:02:53;;;;;;;0.28;0.10;;;;;;;;;;5059168;28;20119;-69
2023/10/16 01:05:23;;;;;;;1.75;0.45;;;;;;;;;;5049820;28;20032;-68
2023/10/16 01:07:50;;;;;;;2.28;0.25;;;;;;;;;;5041136;28;20493;-69
2023/10/16 01:10:16;;;;;;;2.53;0.20;;;;;;;;;;5064707;28;20025;-69
2023/10/16 01:12:55;;;;;;;2.30;0.40;;;;;;;;;;5044673;28;20021;-69
2023/10/16 01:15:24;;;;;;;0.60;0.20;;;;;;;;;;5056350;28;20033;-68
2023/10/16 01:17:52;;;;;;;0.40;0.28;;;;;;;;;;5052925;28;20119;-69
2023/10/16 01:20:18;;;;;;;1.42;0.15;;;;;;;;;;5058547;28;20029;-69
2023/10/16 01:22:48;;;;;;;1.75;0.38;;;;;;;;;;5047997;28;20021;-69
2023/10/16 01:25:15;;;;;;;2.25;0.30;;;;;;;;;;5054758;28;20025;-68
2023/10/16 01:27:42;;;;;;;1.08;0.28;;;;;;;;;;5070901;28;20020;-68
2023/10/16 01:30:09;;;;;;;0.30;0.30;;;;;;;;;;5064697;28;20037;-69
2023/10/16 01:32:35;;;;;;;1.48;0.70;;;;;;;;;;5073293;28;20039;-69
2023/10/16 01:35:03;;;;;;;2.25;0.43;;;;;;;;;;5063324;28;20432;-69
2023/10/16 01:37:32;;;;;;;1.48;0.40;;;;;;;;;;5075290;28;20112;-69
2023/10/16 01:40:21;;;;;;;1.75;0.20;;;;;;;;;;5073316;28;20024;-69
2023/10/16 01:42:48;;;;;;;1.13;0.50;;;;;;;;;;5071389;28;20044;-69
2023/10/16 01:45:15;;;;;;;;;;;;;;;;;;5045514;28;20017;-69
2023/10/16 01:47:41;;;;;;;1.42;0.40;;;;;;;;;;5074941;28;19905;-69
2023/10/16 01:50:13;;;;;;;2.67;0.30;;;;;;;;;;5068240;28;20033;-69
2023/10/16 01:52:40;;;;;;;0.52;0.30;;;;;;;;;;5056002;28;20522;-69
2023/10/16 01:55:15;;;;;;;2.70;0.30;;;;;;;;;;5055809;28;20142;-69
2023/10/16 01:57:44;;;;;;;0.60;0.20;;;;;;;;;;5075131;28;20356;-69
2023/10/16 02:00:16;;;;;;;0.28;0.22;;;;;;;;;;5070031;28;20409;-69
2023/10/16 02:02:42;;;;;;;2.15;0.25;;;34.00;99.90;;;;;;5063145;28;20024;-69
2023/10/16 02:05:10;;;;;;;0.57;0.20;;;33.10;99.90;;;;;;5069245;28;20392;-69
2023/10/16 02:14:20;;;;;;;4.57;0.40;;;32.90;99.90;;;;;;5071709;28;20331;-70
2023/10/16 02:23:31;;;;;;;0.85;0.30;;;32.90;99.90;;;;;;5069486;28;20040;-69
2023/10/16 02:26:01;;;;;;;1.08;0.17;;;32.90;99.90;;;;;;5073800;28;20016;-69
2023/10/16 02:28:31;;;;;;;0.32;0.20;;;32.90;99.90;;;;;;5073175;28;20450;-69
2023/10/16 02:31:10;;;;;;;0.30;0.20;;;32.90;99.90;;;;;;5072474;28;20052;-69
2023/10/16 02:33:36;;;;;;;0.45;0.20;;;32.90;99.90;;;;;;5069685;28;20047;-70
2023/10/16 02:36:02;;;;;;;0.40;0.30;;;32.90;99.90;;;;;;5054449;28;20032;-69
2023/10/16 02:38:28;;;;;;;0.63;0.20;;;32.90;99.90;;;;;;5066825;28;20120;-69
2023/10/16 02:41:00;;;;;;;0.88;0.45;;;32.90;99.90;;;;;;5061921;28;20074;-69
2023/10/16 02:43:36;;;;;;;0.30;0.15;;;32.90;99.90;;;;;;5058546;28;20031;-70
2023/10/16 02:46:03;;;;;;;0.40;0.25;;;32.90;99.90;;;;;;5071388;28;20032;-70
2023/10/16 02:48:30;;;;;;;0.47;0.20;;;32.80;99.90;;;;;;5069509;28;20048;-70
2023/10/16 02:50:59;;;;;;;0.47;0.20;;;32.90;99.90;;;;;;5041119;28;20075;-70
2023/10/16 02:53:28;;;;;;;0.30;0.20;;;32.80;99.90;;;;;;5051584;28;20482;-69
2023/10/16 02:55:58;;;;;;;0.45;0.30;;;32.90;99.90;;;;;;5068973;28;20169;-69
2023/10/16 02:58:28;;;;;;;2.97;0.32;;;32.90;99.90;;;;;;5067354;28;20081;-69
2023/10/16 03:00:55;;;;;;;1.58;0.20;;;32.90;99.90;;;;;;5073047;28;20032;-69
2023/10/16 03:03:28;;;;;;;0.28;0.13;;;32.90;99.90;;;;;;5057492;28;20033;-69
2023/10/16 03:05:56;;;;;;;1.08;0.22;;;32.90;99.90;;;;;;5065823;28;20032;-69
2023/10/16 03:08:29;;;;;;;2.03;0.20;;;32.90;99.90;;;;;;5059191;28;20033;-69
2023/10/16 03:10:59;;;;;;;1.42;0.20;;;33.00;99.90;;;;;;5050183;28;20040;-70
2023/10/16 03:13:26;;;;;;;1.00;0.30;;;32.90;99.90;;;;;;5070362;28;20028;-69
2023/10/16 03:16:05;;;;;;;0.82;0.30;;;32.90;99.90;;;;;;5061749;28;20411;-69
2023/10/16 03:18:34;;;;;;;1.30;0.50;;;32.80;99.90;;;;;;5060389;28;20155;-69
2023/10/16 03:21:26;;;;;;;1.33;0.45;;;32.90;99.90;;;;;;5061668;28;20068;-69
2023/10/16 03:23:52;;;;;;;6.07;0.40;;;32.80;99.90;;;;;;5072232;28;20086;-69
2023/10/16 03:28:46;;;;;;;1.67;0.40;;;32.80;99.90;;;;;;5071075;28;20039;-69
2023/10/16 03:31:12;;;;;;;1.23;0.35;;;32.80;99.90;;;;;;5061604;28;20029;-70
2023/10/16 03:33:38;;;;;;;1.08;0.35;;;32.70;99.90;;;;;;5061843;28;20099;-70
2023/10/16 03:36:04;;;;;;;0.82;0.30;;;32.80;99.90;;;;;;5062433;28;20111;-70
2023/10/16 03:38:37;;;;;;;2.58;0.20;;;32.80;99.90;;;;;;5065597;28;20466;-70
2023/10/16 03:41:12;;;;;;;0.63;0.30;;;32.70;99.90;;;;;;5063953;28;20093;-69
2023/10/16 03:43:42;;;;;;;2.75;0.40;;;32.80;99.90;;;;;;5061772;28;20040;-69
2023/10/16 03:46:10;;;;;;;1.65;0.40;;;32.80;99.90;;;;;;5071409;28;20020;-70
2023/10/16 03:48:39;;;;;;;0.95;0.35;;;32.80;99.90;;;;;;5064050;28;20104;-70
2023/10/16 03:51:06;;;;;;;0.82;0.43;;;32.70;99.90;;;;;;5064358;28;20037;-70
2023/10/16 03:53:35;;;;;;;0.65;0.28;;;32.70;99.90;;;;;;5062109;28;20052;-70
2023/10/16 03:56:02;;;;;;;2.03;0.38;;;32.70;99.90;;;;;;5064640;28;20048;-69
2023/10/16 03:58:33;;;;;;;2.78;0.28;;;32.80;99.90;;;;;;5066031;28;20043;-69
2023/10/16 04:01:07;;;;;;;1.92;0.35;;;32.80;99.90;;;;;;5064290;28;20029;-71
2023/10/16 04:03:46;;;;;;;2.30;0.50;;;32.80;99.90;;;;;;5066147;28;20429;-70
2023/10/16 04:12:57;;;;;;;0.90;0.35;;;32.80;99.90;;;;;;5069051;28;20023;-70
2023/10/16 04:31:44;;;;;;;;;;;32.80;99.90;;;;;;5061659;28;20063;-72
2023/10/16 04:43:08;;;;;;;1.95;0.60;;;32.60;99.90;;;;;;5055249;28;20072;-71
2023/10/16 04:45:54;;;;;;;;;;;32.60;99.90;;;;;;5062098;28;20413;-71
2023/10/16 04:51:36;;;;;;;1.65;0.77;;;32.60;99.90;;;;;;5049876;28;20399;-70
2023/10/16 04:54:27;;;;;;;1.65;0.40;;;32.50;99.90;;;;;;5063736;28;20027;-70
2023/10/16 04:57:37;;;;;;;2.92;0.57;;;32.50;99.90;;;;;;5067917;28;20063;-70
2023/10/16 05:03:05;;;;;;;1.88;0.45;;;32.50;99.90;;;;;;5049117;28;20032;-71
2023/10/16 05:05:56;;;;;;;1.25;0.30;;;32.50;99.90;;;;;;5068553;28;20214;-71
2023/10/16 05:14:19;;;;;;;1.73;0.63;;;32.50;99.90;;;;;;5058226;28;20432;-70
2023/10/16 06:14:22;;;;;;;1.48;0.50;;;32.50;99.90;;;;;;5067974;28;20036;-69
2023/10/16 06:16:53;;;;;;;4.47;0.68;;;32.50;99.90;;;;;;5072165;28;20385;-69
2023/10/16 06:19:19;;;;;;;1.50;0.63;;;32.50;99.90;;;;;;5074163;28;20134;-69
2023/10/16 06:22:10;;;;;;;2.67;0.57;;;32.50;99.90;;;;;;5070056;28;20028;-69
2023/10/16 06:24:36;;;;;;;2.97;0.55;;;32.40;99.90;;;;;;5052079;28;20420;-69
2023/10/16 06:27:10;;;;;;;1.67;0.55;;;32.50;99.90;;;;;;5068541;28;20028;-69
2023/10/16 06:29:41;;;;;;;3.97;0.68;;;32.50;99.90;;;;;;5067865;28;20211;-70
2023/10/16 06:32:07;;;;;;;4.07;0.50;;;32.50;99.90;;;;;;5071672;28;20029;-68
2023/10/16 06:34:36;;;;;;;2.25;0.60;;;32.60;99.90;;;;;;5049176;28;20032;-65
2023/10/16 06:37:09;;;;;;;1.30;0.63;;;32.60;99.90;;;;;;5060383;28;20035;-69
2023/10/16 06:39:35;;;;;;;1.13;0.70;;;32.60;99.90;;;;;;5055099;28;20097;-66
2023/10/16 06:42:04;;;;;;;1.15;0.40;;;32.60;99.90;;;;;;5063008;28;20553;-69
2023/10/16 06:44:33;;;;;;;2.13;0.52;;;32.80;99.90;;;;;;5063594;28;20032;-62
2023/10/16 06:46:59;;;;;;;3.60;0.98;;;32.70;99.90;;;;;;5065787;28;20443;-62
2023/10/16 06:49:37;;;;;;;2.45;0.82;;;32.70;99.90;;;;;;5064847;28;20115;-62
2023/10/16 06:52:12;;;;;;;4.28;0.68;;;32.60;99.90;;;;;;5065834;28;20033;-62
2023/10/16 06:54:39;;;;;;;1.48;0.70;;;32.70;99.90;;;;;;5064137;28;20108;-61
2023/10/16 06:57:10;;;;;;;4.15;0.65;;;32.70;99.90;;;;;;5053946;28;20029;-72
2023/10/16 06:59:50;;;;;;;2.17;0.60;;;32.70;99.90;;;;;;5047462;28;20454;-57
2023/10/16 07:02:19;;;;;;;4.88;0.63;;;32.80;99.90;;;;;;5067114;28;20021;-58
2023/10/16 07:04:45;;;;;;;3.55;0.80;;;32.70;99.90;;;;;;5068076;28;20382;-59
2023/10/16 07:07:14;;;;;;;3.35;0.57;;;32.80;99.90;;;;;;5068421;28;20028;-59
2023/10/16 07:09:47;;;;;;;4.85;1.00;;;32.80;99.90;;;;;;5065196;28;20494;-58
2023/10/16 07:12:23;;;;;;;1.10;0.20;;;32.80;99.90;;;;;;5066527;28;20024;-58
2023/10/16 07:14:55;;;;;;;1.77;0.50;;;32.80;99.90;;;;;;5067628;28;20103;-64
2023/10/16 07:17:24;;;;;;;3.03;0.45;;;32.80;99.90;;;;;;5065958;28;20036;-64
2023/10/16 07:19:50;;;;;;;2.92;0.80;;;32.80;99.90;;;;;;5070831;28;20076;-65
2023/10/16 07:22:16;;;;;;;2.25;0.52;;;32.90;99.90;;;;;;5044743;28;20031;-63
2023/10/16 07:24:42;;;;;;;4.82;0.82;;;32.90;99.90;;;;;;5062204;28;20033;-64
2023/10/16 07:27:12;;;;;;;1.65;0.52;;;32.90;99.90;;;;;;5061736;28;20067;-68
2023/10/16 07:29:43;;;;;;;1.73;0.60;;;33.00;99.90;;;;;;5071602;28;20463;-66
2023/10/16 07:32:10;;;;;;;3.03;0.70;;;32.90;99.90;;;;;;5065738;28;20168;-68
2023/10/16 07:34:37;;;;;;;1.88;0.70;;;32.90;99.90;;;;;;5068628;28;20053;-69
2023/10/16 07:37:07;;;;;;;4.05;0.93;;;33.00;99.90;;;;;;5048706;28;20024;-68
2023/10/16 07:39:35;;;;;;;2.65;0.52;;;33.00;99.90;;;;;;5065597;28;20040;-66
2023/10/16 07:42:03;;;;;;;8.48;1.05;;;33.00;99.90;;;;;;5062750;28;20081;-73
2023/10/16 07:44:29;;;;;;;2.25;0.63;;;32.90;99.90;;;;;;5061000;28;20033;-67
2023/10/16 07:46:55;;;;;;;3.50;0.70;;;32.90;99.90;;;;;;5063997;28;20031;-77
2023/10/16 07:49:25;;;;;;;2.45;0.63;;;33.00;99.90;;;;;;5061941;28;20036;-67
2023/10/16 07:51:52;;;;;;;3.28;0.55;;;33.00;99.90;;;;;;5063288;28;20389;-66
2023/10/16 07:54:20;;;;;;;5.22;0.88;;;33.00;99.90;;;;;;5067582;28;20354;-69
2023/10/16 07:56:46;;;;;;;2.80;1.08;;;33.10;99.90;;;;;;5064962;28;20037;-64
2023/10/16 07:59:21;;;;;;;3.92;0.90;;;33.20;99.90;;;;;;5053870;28;20024;-65
2023/10/16 08:01:52;;;;;;;;;;;33.10;99.90;;;;;;5046583;28;20570;-66
2023/10/16 08:06:55;;;;;;;2.65;0.95;;;33.20;99.90;;;;;;5069090;28;20036;-69
2023/10/16 08:14:36;;;;;;;0.93;0.50;;;33.30;99.90;;;;;;5016480;28;20524;-68
2023/10/16 08:17:05;;;;;;;2.45;0.93;;;33.40;99.90;;;;;;5067720;28;20028;-61
2023/10/16 08:19:34;;;;;;;4.18;0.93;;;33.40;99.90;;;;;;5065144;28;20109;-67
2023/10/16 08:22:03;;;;;;;4.10;0.88;;;33.40;99.90;;;;;;5069312;28;20115;-72
2023/10/16 08:24:30;;;;;;;2.60;1.10;;;33.40;99.90;;;;;;5062706;28;20028;-61
2023/10/16 08:29:50;;;;;;;4.30;0.90;;;33.40;99.90;;;;;;5069612;28;20042;-68
2023/10/16 08:38:26;;;;;;;3.60;0.93;;;33.30;99.90;;;;;;5064555;28;20055;-66
2023/10/16 08:40:57;;;;;;;2.38;0.63;;;33.20;99.90;;;;;;5050537;28;20024;-72
2023/10/16 08:44:14;;;;;;;1.60;0.82;;;33.20;99.90;;;;;;5071141;28;20055;-68
2023/10/16 08:46:18;;;;;;;3.17;0.80;;;33.20;99.90;;;;;;5062980;28;20051;-63
2023/10/16 08:48:45;;;;;;;2.22;0.63;;;33.30;99.90;;;;;;5061376;28;20027;-66
2023/10/16 08:51:12;;;;;;;3.50;1.10;;;33.30;99.90;;;;;;5069152;28;20032;-69
2023/10/16 08:53:42;;;;;;;4.40;1.65;;;33.30;99.90;;;;;;5062535;28;20064;-61
2023/10/16 08:56:07;;;;;;;3.03;0.77;;;33.30;99.90;;;;;;5064059;28;20107;-67
2023/10/16 08:58:41;;;;;;;3.53;1.35;;;33.30;99.90;;;;;;5064235;28;20351;-65
2023/10/16 09:01:16;;;;;;;3.60;1.42;;;33.40;99.90;;;;;;5066651;28;20037;-73
2023/10/16 09:03:54;;;;;;;6.95;1.92;;;33.40;99.90;;;;;;5066385;28;20028;-72
2023/10/16 09:06:24;;;;;;;4.65;2.33;;;33.50;99.90;;;;;;5059843;28;20029;-70
2023/10/16 09:08:54;;;;;;;3.20;1.10;;;33.50;99.90;;;;;;5070339;28;20035;-69
2023/10/16 09:11:20;;;;;;;2.85;0.90;;;33.50;99.90;;;;;;5052283;28;20037;-68
2023/10/16 09:13:52;;;;;;;4.70;1.48;;;33.50;99.90;;;;;;5061166;28;20459;-68
2023/10/16 09:16:23;;;;;;;2.70;1.00;;;33.50;99.90;;;;;;5046866;28;20052;-66
2023/10/16 09:18:53;;;;;;;3.80;0.82;;;33.50;99.90;;;;;;5061501;28;20061;-67
2023/10/16 09:21:27;;;;;;;2.40;0.73;;;33.50;99.90;;;;;;5058318;28;20123;-66
2023/10/16 09:23:58;;;;;;;2.90;0.80;;;33.50;99.90;;;;;;5066512;28;20108;-66
2023/10/16 09:26:25;;;;;;;3.53;0.70;;;33.40;99.90;;;;;;5068701;28;20102;-66
2023/10/16 09:28:55;;;;;;;3.42;0.77;;;33.40;99.90;;;;;;5066385;28;20093;-67
2023/10/16 09:31:21;;;;;;;3.28;0.77;;;33.50;99.90;;;;;;5067945;28;20226;-64
2023/10/16 09:33:50;;;;;;;4.20;1.17;;;33.50;99.90;;;;;;5070453;28;20469;-64
2023/10/16 09:36:22;;;;;;;5.00;1.58;;;33.50;99.90;;;;;;5070915;28;20036;-64
2023/10/16 09:38:51;;;;;;;1.73;1.08;;;;;;;;;;5068550;28;20025;-62
2023/10/16 09:43:56;;;;;;;4.00;0.65;;;33.70;99.90;;;;;;5071272;28;20080;-61
2023/10/16 09:49:21;;;;;;;7.20;1.23;;;33.70;99.90;;;;;;5073295;28;20478;-68
2023/10/16 09:51:49;;;;;;;1.40;0.70;;;33.80;99.90;;;;;;5071063;28;20051;-68
2023/10/16 09:54:15;;;;;;;5.75;0.93;;;;;;;;;;5075057;28;20028;-65
2023/10/16 13:52:01;;;;;;;4.75;1.23;;;;;;;;;;5056940;28;20470;-68
2023/10/16 13:54:31;;;;;;;5.40;1.10;;;;;;;;;;5075003;28;20109;-63
2023/10/16 13:56:57;;;;;;;4.88;1.30;;;;;;;;;;5075437;28;20024;-61
2023/10/16 13:59:23;;;;;;;3.25;0.70;;;;;;;;;;5074888;28;20051;-63
2023/10/16 14:01:50;;;;;;;4.40;1.13;;;;;;;;;;5075199;28;20028;-69
2023/10/16 14:04:21;;;;;;;8.45;1.50;;;;;;;;;;5075513;28;20028;-65
2023/10/16 14:06:54;;;;;;;6.53;2.00;;;;;;;;;;5061258;28;20107;-69
2023/10/16 14:09:20;;;;;;;5.38;1.25;;;;;;;;;;5076404;28;20406;-69
2023/10/16 14:11:50;;;;;;;3.00;1.13;;;;;;;;;;5063874;28;20028;-72
2023/10/16 14:14:20;;;;;;;3.28;1.00;;;;;;;;;;5076180;28;20028;-66
2023/10/16 14:16:50;;;;;;;7.88;1.52;;;;;;;;;;5075026;28;20017;-66
2023/10/16 14:19:22;;;;;;;2.30;1.20;;;;;;;;;;5065467;28;20021;-67
2023/10/16 14:21:48;;;;;;;9.30;1.52;;;;;;;;;;5068586;28;20021;-71
2023/10/16 14:24:17;;;;;;;3.75;1.00;;;;;;;;;;5051195;28;20432;-66
2023/10/16 14:26:46;;;;;;;7.28;2.25;;;;;;;;;;5051541;28;20493;-66
2023/10/16 14:29:13;;;;;;;5.32;1.70;;;;;;;;;;5074360;28;20070;-63
2023/10/16 14:31:39;;;;;;;5.45;1.50;;;;;;;;;;5075076;28;20130;-66
2023/10/16 14:34:05;;;;;;;4.18;1.35;;;;;;;;;;5055408;28;20086;-65
2023/10/16 14:36:31;;;;;;;5.05;0.95;;;;;;;;;;5073798;28;20094;-63
2023/10/16 14:38:59;;;;;;;2.90;1.20;;;;;;;;;;5064009;28;20501;-70
2023/10/16 14:41:25;;;;;;;5.13;1.30;;;;;;;;;;5066582;28;20120;-66
2023/10/16 14:43:51;;;;;;;4.43;1.00;;;;;;;;;;5039300;28;20111;-60
2023/10/16 14:46:20;;;;;;;3.38;1.20;;;;;;;;;;5074236;28;20021;-62
2023/10/16 14:48:46;;;;;;;4.75;1.10;;;;;;;;;;5074256;28;20024;-66
2023/10/16 14:51:34;;;;;;;2.97;1.02;;;;;;;;;;5073931;28;20120;-66
2023/10/16 14:54:00;;;;;;;5.95;1.98;;;;;;;;;;5058641;28;20040;-65
2023/10/16 14:56:26;;;;;;;5.78;1.15;;;;;;;;;;5074118;28;20063;-60
2023/10/16 14:58:52;;;;;;;8.10;1.58;;;;;;;;;;5073212;28;20081;-60
2023/10/16 15:01:23;;;;;;;5.78;1.30;;;;;;;;;;5073702;28;20047;-59
2023/10/16 15:03:54;;;;;;;6.20;1.10;;;;;;;;;;5066556;28;20025;-63
2023/10/16 15:06:20;;;;;;;4.28;1.42;;;;;;;;;;5068229;28;20374;-64
2023/10/16 15:08:48;;;;;;;4.30;1.30;;;;;;;;;;5056127;28;20121;-68
2023/10/16 15:11:14;;;;;;;3.70;1.20;;;;;;;;;;5070765;28;20046;-72
2023/10/16 15:13:42;;;;;;;4.53;0.90;;;33.80;99.90;;;;;;5079157;28;20145;-75
2023/10/16 15:16:09;;;;;;;4.50;1.10;;;34.60;99.90;;;;;;5060271;28;20055;-83
2023/10/16 15:18:38;;;;;;;6.22;1.00;;;34.50;99.90;;;;;;5066608;28;20081;-81
2023/10/16 15:21:04;;;;;;;4.70;1.20;;;34.40;99.90;;;;;;5070568;28;20430;-69
2023/10/16 15:23:30;;;;;;;3.17;1.15;;;34.40;99.90;;;;;;5074127;28;20024;-71
2023/10/16 15:25:58;;;;;;;2.95;0.88;;;34.40;99.90;;;;;;5073482;28;20025;-69
2023/10/16 15:31:46;;;;;;;7.55;2.17;;;34.30;99.90;;;;;;5069379;28;20044;-67
2023/10/16 15:34:12;;;;;;;4.22;1.70;;;34.40;99.90;;;;;;5073790;28;20017;-68
2023/10/16 15:36:41;;;;;;;6.55;1.55;;;34.30;99.90;;;;;;5055631;28;20025;-64
2023/10/16 15:39:15;;;;;;;4.07;1.27;;;34.30;99.90;;;;;;5063529;28;20107;-64
2023/10/16 15:41:44;;;;;;;9.43;1.80;;;34.30;99.90;;;;;;5072888;28;20420;-71
2023/10/16 15:44:10;;;;;;;4.38;1.70;;;34.30;99.90;;;;;;5072979;28;20075;-60
2023/10/16 15:46:36;;;;;;;6.38;1.55;;;34.20;99.90;;;;;;5066998;28;20493;-58
2023/10/16 15:49:02;;;;;;;3.75;1.25;;;34.10;99.90;;;;;;5058090;28;20107;-63
2023/10/16 15:51:31;;;;;;;7.28;1.05;;;34.10;99.90;;;;;;5062250;28;20474;-66
2023/10/16 15:53:56;;;;;;;2.78;1.10;;;34.10;99.90;;;;;;5051840;28;20020;-63
2023/10/16 15:56:23;;;;;;;4.85;1.45;;;34.10;99.90;;;;;;5042826;28;20033;-63
2023/10/16 15:58:48;;;;;;;7.78;1.65;;;34.10;99.90;;;;;;5063588;28;20478;-65
2023/10/16 16:01:15;;;;;;;8.45;2.58;;;34.10;99.90;;;;;;5054172;28;20027;-62
2023/10/16 16:03:40;;;;;;;4.35;1.40;;;34.10;99.90;;;;;;5071608;28;20115;-63
2023/10/16 16:06:13;;;;;;;4.07;1.30;;;34.00;99.90;;;;;;5059165;28;20124;-62
2023/10/16 16:08:40;;;;;;;11.90;1.67;;;34.00;99.90;;;;;;5057465;28;20108;-62
2023/10/16 16:11:07;;;;;;;2.15;1.20;;;33.90;99.90;;;;;;5058544;28;20032;-62
2023/10/16 16:13:35;;;;;;;3.17;1.30;;;33.90;99.90;;;;;;5072017;28;20024;-64
2023/10/16 16:16:23;;;;;;;5.80;1.10;;;33.90;99.90;;;;;;5071839;28;20419;-63
2023/10/16 16:18:49;;;;;;;2.22;1.10;;;33.90;99.90;;;;;;5066520;28;20056;-63
2023/10/16 16:21:16;;;;;;;6.30;1.27;;;33.90;99.90;;;;;;5071696;28;20153;-64
2023/10/16 16:23:42;;;;;;;6.55;1.58;;;33.80;99.90;;;;;;5071767;28;20025;-64
2023/10/16 16:26:11;;;;;;;7.18;4.55;;;33.80;99.90;;;;;;5071883;28;20043;-64
2023/10/16 16:28:38;;;;;;;18.30;10.50;;;33.80;99.90;;;;;;5071464;28;20112;-63
2023/10/16 16:31:04;;;;;;;8.05;2.80;;;33.80;99.90;;;;;;5071811;28;20098;-63
2023/10/16 16:33:30;;;;;;;5.72;1.80;;;33.80;99.90;;;;;;5053793;28;20032;-63
2023/10/16 16:36:24;;;;;;;3.20;1.55;;;33.80;99.90;;;;;;5071941;28;20028;-64
2023/10/16 16:38:49;;;;;;;4.15;1.40;;;33.80;99.90;;;;;;5071325;28;20078;-64
2023/10/16 16:41:15;;;;;;;2.17;1.10;;;33.80;99.90;;;;;;5071241;28;20036;-64
2023/10/16 16:43:40;;;;;;;2.88;1.15;;;33.80;99.90;;;;;;5069062;28;20477;-64
2023/10/16 16:46:06;;;;;;;4.57;1.10;;;33.80;99.90;;;;;;5060239;28;20112;-63
2023/10/16 16:48:32;;;;;;;5.38;1.10;;;33.80;99.90;;;;;;5063435;28;20107;-60
2023/10/16 16:50:59;;;;;;;3.45;1.00;;;33.70;99.90;;;;;;5060084;28;20498;-61
2023/10/16 16:53:25;;;;;;;5.65;1.48;;;33.80;99.90;;;;;;5043651;28;20403;-61
2023/10/16 16:55:51;;;;;;;4.88;1.45;;;33.70;99.90;;;;;;5040286;28;20483;-61
2023/10/16 16:58:17;;;;;;;7.80;2.13;;;33.70;99.90;;;;;;5039515;28;20021;-60
2023/10/16 17:00:43;;;;;;;5.10;1.30;;;33.60;99.90;;;;;;5042323;28;20111;-60
2023/10/16 17:03:09;;;;;;;4.85;1.25;;;33.70;99.90;;;;;;5046190;28;20052;-60
2023/10/16 17:05:35;;;;;;;6.00;1.42;;;33.70;99.90;;;;;;5050278;28;20024;-60
2023/10/16 17:08:03;;;;;;;6.72;1.40;;;33.70;99.90;;;;;;5046644;28;20025;-60
2023/10/16 17:10:30;;;;;;;6.30;1.20;;;33.70;99.90;;;;;;5046380;28;20037;-60
2023/10/16 17:12:56;;;;;;;4.93;1.50;;;33.70;99.90;;;;;;5047436;28;20033;-60
2023/10/16 17:15:23;;;;;;;5.10;1.23;;;33.70;99.90;;;;;;5046723;28;20395;-60
2023/10/16 17:17:52;;;;;;;5.45;1.75;;;33.60;99.90;;;;;;5050722;28;20040;-60
2023/10/16 17:20:18;;;;;;;6.95;1.88;;;33.60;99.90;;;;;;5048285;28;20037;-60
2023/10/16 17:22:43;;;;;;;;;;;33.60;99.90;;;;;;5047966;28;20389;-62
2023/10/16 17:25:10;;;;;;;;;;;33.60;99.90;;;;;;5049695;28;19908;-62
2023/10/16 17:27:36;;;;;;;;;;;33.60;99.90;;;;;;5048798;28;19909;-62
2023/10/16 17:30:01;;;;;;;3.17;1.17;;;33.60;99.90;;;;;;5047505;28;19909;-62
2023/10/16 17:32:33;;;;;;;4.97;1.40;;;33.60;99.90;;;;;;5045665;28;20597;-62
2023/10/16 17:34:59;;;;;;;4.25;1.15;;;33.70;99.90;;;;;;5046467;28;20399;-63
2023/10/16 17:37:25;;;;;;;4.50;1.60;;;33.80;99.90;;;;;;5048055;28;20434;-63
2023/10/16 17:39:53;;;;;;;5.47;1.40;;;33.70;99.90;;;;;;5049750;28;20405;-63
2023/10/16 17:42:19;;;;;;;3.17;1.05;;;33.70;99.90;;;;;;5047441;28;20033;-63
2023/10/16 17:44:44;;;;;;;5.10;1.25;;;33.60;99.90;;;;;;5043404;28;20378;-63
2023/10/16 17:47:10;;;;;;;4.63;1.10;;;33.60;99.90;;;;;;5042585;28;20447;-62
2023/10/16 17:49:36;;;;;;;5.50;1.10;;;33.60;99.90;;;;;;5040883;28;20040;-62
2023/10/16 17:52:02;;;;;;;3.67;1.42;;;33.60;99.90;;;;;;5064060;28;20127;-62
2023/10/16 17:54:31;;;;;;;6.78;1.70;;;33.60;99.90;;;;;;5072423;28;20102;-62
2023/10/16 17:57:00;;;;;;;7.78;1.33;;;33.50;99.90;;;;;;5056097;28;20437;-62
2023/10/16 17:59:29;;;;;;;2.97;1.38;;;33.60;99.90;;;;;;5056711;28;20033;-62
2023/10/16 18:01:59;;;;;;;3.80;1.38;;;33.60;99.90;;;;;;5069394;28;20100;-62
2023/10/16 18:04:25;;;;;;;5.38;1.10;;;33.50;99.90;;;;;;5057734;28;20047;-62
2023/10/16 18:06:51;;;;;;;4.65;1.38;;;33.50;99.90;;;;;;5076300;28;20070;-62
2023/10/16 18:09:17;;;;;;;9.25;1.90;;;33.50;99.90;;;;;;5075667;28;20410;-62
2023/10/16 18:11:44;;;;;;;5.28;2.45;;;33.50;99.90;;;;;;5069466;28;20064;-62
2023/10/16 18:14:09;;;;;;;6.78;1.63;;;33.50;99.90;;;;;;5054897;28;20063;-62
2023/10/16 18:16:38;;;;;;;7.30;2.30;;;33.50;99.90;;;;;;5055209;28;20037;-62
2023/10/16 18:19:04;;;;;;;9.98;2.47;;;33.50;99.90;;;;;;5061235;28;20101;-62
2023/10/16 18:21:30;;;;;;;5.28;1.77;;;33.50;99.90;;;;;;5074189;28;20068;-63
2023/10/16 18:23:59;;;;;;;5.55;1.10;;;33.50;99.90;;;;;;5074657;28;20013;-63
2023/10/16 18:26:32;;;;;;;7.40;1.95;;;33.50;99.90;;;;;;5074390;28;20127;-63
2023/10/16 18:28:58;;;;;;;4.47;1.10;;;33.50;99.90;;;;;;5061081;28;20016;-63
2023/10/16 18:31:24;;;;;;;3.63;1.55;;;33.50;99.90;;;;;;5074039;28;20512;-63
2023/10/16 18:33:52;;;;;;;4.15;2.13;;;33.50;99.90;;;;;;5055904;28;20024;-65
2023/10/16 18:36:17;;;;;;;6.75;1.80;;;33.40;99.90;;;;;;5074068;28;20025;-63
2023/10/16 18:38:43;;;;;;;7.70;2.25;;;33.50;99.90;;;;;;5064822;28;20028;-64
2023/10/16 18:41:12;;;;;;;10.75;2.15;;;33.40;99.90;;;;;;5073742;28;20021;-64
2023/10/16 18:43:39;;;;;;;7.63;1.90;;;33.40;99.90;;;;;;5058977;28;20027;-63
2023/10/16 18:46:05;;;;;;;4.88;1.80;;;33.40;99.90;;;;;;5049460;28;20025;-64
2023/10/16 18:48:31;;;;;;;7.97;1.92;;;33.30;99.90;;;;;;5054015;28;20372;-64
2023/10/16 18:50:57;;;;;;;6.68;2.17;;;33.40;99.90;;;;;;5059784;28;20485;-64
2023/10/16 18:53:23;;;;;;;7.32;2.25;;;33.30;99.90;;;;;;5065246;28;20072;-63
2023/10/16 18:55:51;;;;;;;8.32;1.60;;;33.30;99.90;;;;;;5071090;28;20021;-64
2023/10/16 18:58:17;;;;;;;7.72;2.28;;;33.40;99.90;;;;;;5056883;28;20031;-64
2023/10/16 19:00:44;;;;;;;4.95;1.83;;;33.40;99.90;;;;;;5069448;28;20059;-64
2023/10/16 19:03:14;;;;;;;9.60;2.58;;;33.30;99.90;;;;;;5062329;28;20051;-64
2023/10/16 19:09:04;;;;;;;5.65;1.35;;;33.30;99.90;;;;;;5068280;28;20455;-64
2023/10/16 19:11:32;;;;;;;8.25;2.45;;;33.30;99.90;;;;;;5069313;28;20470;-64
2023/10/16 19:14:08;;;;;;;8.68;2.08;;;33.30;99.90;;;;;;5060377;28;20031;-64
2023/10/16 19:16:34;;;;;;;6.00;2.22;;;33.30;99.90;;;;;;5064211;28;20440;-64
2023/10/16 19:19:00;;;;;;;8.18;2.08;;;33.30;99.90;;;;;;5048774;28;20028;-64
2023/10/16 19:21:25;;;;;;;4.22;1.48;;;33.10;99.90;;;;;;5068778;28;20094;-64
2023/10/16 19:23:51;;;;;;;6.75;1.73;;;33.10;99.90;;;;;;5070049;28;20036;-63
2023/10/16 19:26:17;;;;;;;8.40;2.88;;;33.20;99.90;;;;;;5065303;28;20037;-63
2023/10/16 19:32:52;;;;;;;6.57;1.63;;;33.20;99.90;;;;;;5067585;28;20067;-63
2023/10/16 19:35:17;;;;;;;6.18;1.65;;;33.20;99.90;;;;;;5048195;28;20032;-64
2023/10/16 19:37:44;;;;;;;9.18;2.28;;;33.20;99.90;;;;;;5065325;28;20397;-64
2023/10/16 19:40:16;;;;;;;4.72;1.80;;;33.10;99.90;;;;;;5062028;28;20028;-64
2023/10/16 19:42:47;;;;;;;7.25;1.63;;;33.20;99.90;;;;;;5067997;28;20048;-65
2023/10/16 19:45:13;;;;;;;4.80;1.65;;;33.10;99.90;;;;;;5072148;28;20511;-65
2023/10/16 19:47:44;;;;;;;6.40;2.05;;;33.20;99.90;;;;;;5053573;28;20127;-65
2023/10/16 19:50:11;;;;;;;3.70;2.00;;;33.20;99.90;;;;;;5044729;28;20024;-64
2023/10/16 19:52:41;;;;;;;7.00;2.05;;;33.10;99.90;;;;;;5040585;28;20050;-65